CheckWX is a tool to help pilots better visualize weather data.  It is not intended as a substitute for an official pre-flight weather briefing.

08:01:40 UTC

KDNL TAF
Daniel Field Airport
Augusta, Georgia, USA
KDNL 190524Z 1906/2006 02008KT P6SM BKN250 FM191400 05008G16KT P6SM SCT250 FM192300 04003KT P6SM SCT250

Mar-19@
06:00 UTC

Mar-19 @ 06:00 UTC

Mar-19@
14:00 UTC

Mar-19 @ 14:00 UTC

KDNL 190524Z 1906/2006 02008KT P6SM BKN250
Wind
  • 020° at 8 KTS
Cloud Levels
  • Broken at 25,000' AGL

Mar-19@
14:00 UTC

Mar-19 @ 14:00 UTC

Mar-19@
23:00 UTC

Mar-19 @ 23:00 UTC

FM191400 05008G16KT P6SM SCT250

From

From Standard forecast or significant change

Wind
  • 050° at 8 KTS
  • {Gusting to 16 KTS
Cloud Levels
  • Scattered at 25,000' AGL

Mar-19@
23:00 UTC

Mar-19 @ 23:00 UTC

Mar-20@
06:00 UTC

Mar-20 @ 06:00 UTC

FM192300 04003KT P6SM SCT250

From

From Standard forecast or significant change

Wind
  • 040° at 3 KTS
Cloud Levels
  • Scattered at 25,000' AGL